createdAt,value
2022-08-08T00:01:08.254Z,9.48
2022-08-08T00:04:02.003Z,6.68
2022-08-08T00:06:34.996Z,6.82
2022-08-08T00:09:15.996Z,9.23
2022-08-08T00:12:07.561Z,8.43
2022-08-08T00:15:00.746Z,7.47
2022-08-08T00:17:58.743Z,10.90
2022-08-08T00:20:33.795Z,11.85
2022-08-08T00:23:11.924Z,6.60
2022-08-08T00:25:50.817Z,8.48
2022-08-08T00:28:35.547Z,9.40
2022-08-08T00:32:15.446Z,7.53
2022-08-08T00:34:41.413Z,6.80
2022-08-08T00:37:47.764Z,8.05
2022-08-08T00:41:09.056Z,7.78
2022-08-08T00:43:59.198Z,8.13
2022-08-08T00:46:57.991Z,11.02
2022-08-08T00:50:06.090Z,7.72
2022-08-08T00:52:48.443Z,10.38
2022-08-08T00:55:54.149Z,9.65
2022-08-08T00:59:44.345Z,9.07
2022-08-08T01:03:59.768Z,10.40
2022-08-08T01:06:00.887Z,10.70
2022-08-08T01:09:35.970Z,9.40
2022-08-08T01:12:52.302Z,9.27
2022-08-08T01:16:00.247Z,9.77
2022-08-08T01:18:58.294Z,10.63
2022-08-08T01:22:12.578Z,7.70
2022-08-08T01:24:50.859Z,14.75
2022-08-08T01:28:02.127Z,11.02
2022-08-08T01:30:58.541Z,9.05
2022-08-08T01:34:00.015Z,12.43
2022-08-08T01:36:50.989Z,8.88
2022-08-08T01:39:48.537Z,8.27
2022-08-08T01:42:49.208Z,10.63
2022-08-08T01:45:30.522Z,9.25
2022-08-08T01:48:16.976Z,9.02
2022-08-08T01:51:30.070Z,8.20
2022-08-08T01:55:16.513Z,9.05
2022-08-08T01:58:04.113Z,9.88
2022-08-08T02:00:36.706Z,10.60
2022-08-08T02:03:55.896Z,12.48
2022-08-08T02:06:32.287Z,9.35
2022-08-08T02:09:18.935Z,10.05
2022-08-08T02:12:32.285Z,8.68
2022-08-08T02:15:17.039Z,9.25
2022-08-08T02:18:19.844Z,11.63
2022-08-08T02:21:17.882Z,8.77
2022-08-08T02:24:06.190Z,10.13
2022-08-08T02:27:01.356Z,10.75
2022-08-08T02:30:01.015Z,11.15
2022-08-08T02:33:08.451Z,13.77
2022-08-08T02:36:03.715Z,9.07
2022-08-08T02:38:51.548Z,11.70
2022-08-08T02:41:59.157Z,11.88
2022-08-08T02:45:18.878Z,9.18
2022-08-08T02:48:14.738Z,8.77
2022-08-08T02:51:03.172Z,10.45
2022-08-08T02:54:16.508Z,11.73
2022-08-08T02:56:59.107Z,8.80
2022-08-08T03:00:31.772Z,11.68
2022-08-08T03:03:14.836Z,9.20
2022-08-08T03:06:30.582Z,11.77
2022-08-08T03:09:43.691Z,13.35
2022-08-08T03:13:01.226Z,13.95
2022-08-08T03:16:06.200Z,14.85
2022-08-08T03:18:54.037Z,11.77
2022-08-08T03:21:26.862Z,11.55
2022-08-08T03:23:59.697Z,20.83
2022-08-08T03:26:42.201Z,12.38
2022-08-08T03:29:20.901Z,11.13
2022-08-08T03:32:09.345Z,10.65
2022-08-08T03:34:42.095Z,11.48
2022-08-08T03:38:53.401Z,12.68
2022-08-08T03:40:29.689Z,13.05
2022-08-08T03:43:16.776Z,9.27
2022-08-08T03:46:07.315Z,14.57
2022-08-08T03:49:27.978Z,11.07
2022-08-08T03:51:47.131Z,14.10
2022-08-08T03:54:40.779Z,10.13
2022-08-08T03:58:34.566Z,11.55
2022-08-08T04:00:18.321Z,10.23
2022-08-08T04:03:12.122Z,11.25
2022-08-08T04:05:47.947Z,9.63
2022-08-08T04:08:33.484Z,10.30
2022-08-08T04:11:11.042Z,11.95
2022-08-08T04:14:03.242Z,10.82
2022-08-08T04:16:40.883Z,12.43
2022-08-08T04:19:23.301Z,13.55
2022-08-08T04:21:58.524Z,15.98
2022-08-08T04:24:33.341Z,16.48
2022-08-08T04:29:44.773Z,11.25
2022-08-08T04:32:30.888Z,12.77
2022-08-08T04:35:04.476Z,14.40
2022-08-08T04:37:38.278Z,13.43
2022-08-08T04:40:15.361Z,11.35
2022-08-08T04:42:57.329Z,11.90
2022-08-08T04:45:47.395Z,10.45
2022-08-08T04:48:21.691Z,14.88
2022-08-08T04:50:52.271Z,14.70
2022-08-08T04:54:36.156Z,13.02
2022-08-08T04:56:17.678Z,13.93
2022-08-08T04:58:48.483Z,12.80
2022-08-08T05:01:20.997Z,15.38
2022-08-08T05:04:11.563Z,14.63
2022-08-08T05:06:47.433Z,13.30
2022-08-08T05:09:22.352Z,13.02
2022-08-08T05:11:56.578Z,14.85
2022-08-08T05:14:29.314Z,15.80
2022-08-08T05:17:02.105Z,15.15
2022-08-08T05:20:12.848Z,12.73
2022-08-08T05:22:42.185Z,16.27
2022-08-08T05:25:12.884Z,12.30
2022-08-08T05:27:44.351Z,13.35
2022-08-08T05:30:16.717Z,13.23
2022-08-08T05:32:57.908Z,13.48
2022-08-08T05:35:33.988Z,11.77
2022-08-08T05:38:30.631Z,15.55
2022-08-08T05:41:07.704Z,12.80
2022-08-08T05:44:03.924Z,15.77
2022-08-08T05:46:32.225Z,14.45
2022-08-08T05:49:10.904Z,12.00
2022-08-08T05:51:49.071Z,17.83
2022-08-08T05:54:28.873Z,16.45
2022-08-08T05:57:57.706Z,14.27
2022-08-08T06:00:23.629Z,12.85
2022-08-08T06:03:23.697Z,17.05
2022-08-08T06:06:06.765Z,13.75
2022-08-08T06:08:55.012Z,18.70
2022-08-08T06:11:28.288Z,14.05
2022-08-08T06:13:58.767Z,13.77
2022-08-08T06:16:30.577Z,13.13
2022-08-08T06:19:16.184Z,14.80
2022-08-08T06:21:57.560Z,13.05
2022-08-08T06:24:40.031Z,13.73
2022-08-08T06:27:13.659Z,13.25
2022-08-08T06:30:00.858Z,11.40
2022-08-08T06:32:47.767Z,12.15
2022-08-08T06:36:04.287Z,18.60
2022-08-08T06:38:14.924Z,12.95
2022-08-08T06:40:54.224Z,11.43
2022-08-08T06:43:34.128Z,11.90
2022-08-08T06:46:16.414Z,11.30
2022-08-08T06:48:49.312Z,14.55
2022-08-08T06:51:20.265Z,12.13
2022-08-08T06:53:56.420Z,10.02
2022-08-08T06:56:33.679Z,8.45
2022-08-08T06:59:09.755Z,8.55
2022-08-08T07:02:27.378Z,10.60
2022-08-08T07:05:00.478Z,10.45
2022-08-08T07:08:00.057Z,9.50
2022-08-08T07:10:47.526Z,14.17
2022-08-08T07:13:25.037Z,9.32
2022-08-08T07:16:10.659Z,9.75
2022-08-08T07:19:27.576Z,8.35
2022-08-08T07:22:11.931Z,7.18
2022-08-08T07:24:56.690Z,7.95
2022-08-08T07:27:46.952Z,5.60
2022-08-08T07:30:25.822Z,6.85
2022-08-08T07:32:59.419Z,6.07
2022-08-08T07:35:35.463Z,6.50
2022-08-08T07:38:10.052Z,9.82
2022-08-08T07:40:52.203Z,10.95
2022-08-08T07:43:36.670Z,7.72
2022-08-08T07:46:23.738Z,4.05
2022-08-08T07:49:01.868Z,5.53
2022-08-08T07:51:53.472Z,7.35
2022-08-08T07:54:54.123Z,5.45
2022-08-08T07:57:36.010Z,6.55
2022-08-08T08:00:17.192Z,5.72
2022-08-08T08:03:16.802Z,4.72
2022-08-08T08:05:54.554Z,6.32
2022-08-08T08:09:08.315Z,4.50
2022-08-08T08:11:52.493Z,4.35
2022-08-08T08:14:49.780Z,3.97
2022-08-08T08:17:22.387Z,4.60
2022-08-08T08:20:00.598Z,8.82
2022-08-08T08:22:31.707Z,6.35
2022-08-08T08:25:07.806Z,3.65
2022-08-08T08:27:46.603Z,3.53
2022-08-08T08:30:17.358Z,5.80
2022-08-08T08:32:51.191Z,3.60
2022-08-08T08:35:29.701Z,4.05
2022-08-08T08:38:17.299Z,4.40
2022-08-08T08:40:52.809Z,4.15
2022-08-08T08:43:26.721Z,4.13
2022-08-08T08:46:03.641Z,4.63
2022-08-08T08:48:36.499Z,4.68
2022-08-08T08:51:18.963Z,5.70
2022-08-08T08:53:59.745Z,5.75
2022-08-08T08:56:34.722Z,7.25
2022-08-08T08:59:15.143Z,6.88
2022-08-08T09:01:54.154Z,2.58
2022-08-08T09:04:37.941Z,4.70
2022-08-08T09:07:19.105Z,4.38
2022-08-08T09:09:55.324Z,6.90
2022-08-08T09:12:31.463Z,3.42
2022-08-08T09:17:41.640Z,4.78
2022-08-08T09:21:56.668Z,2.35
2022-08-08T09:23:17.854Z,3.63
2022-08-08T09:26:04.010Z,4.88
2022-08-08T09:28:43.172Z,3.72
2022-08-08T09:31:24.015Z,1.85
2022-08-08T09:34:30.523Z,2.35
2022-08-08T09:36:51.665Z,3.35
2022-08-08T09:40:11.145Z,2.35
2022-08-08T09:42:44.384Z,4.60
2022-08-08T09:46:03.139Z,2.85
2022-08-08T09:48:42.615Z,3.03
2022-08-08T09:51:12.550Z,4.18
2022-08-08T09:53:59.111Z,1.20
2022-08-08T09:56:41.294Z,4.68
2022-08-08T09:59:53.250Z,1.67
2022-08-08T10:02:12.565Z,3.47
2022-08-08T10:04:47.808Z,2.22
2022-08-08T10:07:19.119Z,3.85
2022-08-08T10:09:59.208Z,2.72
2022-08-08T10:12:53.811Z,5.78
2022-08-08T10:15:29.282Z,4.32
2022-08-08T10:18:10.587Z,5.03
2022-08-08T10:20:58.215Z,1.30
2022-08-08T10:23:58.586Z,3.25
2022-08-08T10:26:59.431Z,4.93
2022-08-08T10:29:58.871Z,5.25
2022-08-08T10:32:48.585Z,2.17
2022-08-08T10:36:08.312Z,3.13
2022-08-08T10:38:17.892Z,4.15
2022-08-08T10:40:54.722Z,2.90
2022-08-08T10:43:25.173Z,2.83
2022-08-08T10:46:03.446Z,1.50
2022-08-08T10:48:56.700Z,0.68
2022-08-08T10:51:31.337Z,2.70
2022-08-08T10:54:10.960Z,1.50
2022-08-08T10:56:43.739Z,1.27
2022-08-08T10:59:14.656Z,2.75
2022-08-08T11:01:49.594Z,2.20
2022-08-08T11:04:29.802Z,3.42
2022-08-08T11:07:15.048Z,1.50
2022-08-08T11:09:58.095Z,2.72
2022-08-08T11:12:29.174Z,3.67
2022-08-08T11:15:01.566Z,2.05
2022-08-08T11:17:58.476Z,4.70
2022-08-08T11:20:31.750Z,4.15
2022-08-08T11:23:05.801Z,3.95
2022-08-08T11:25:51.779Z,2.10
2022-08-08T11:28:29.361Z,2.90
2022-08-08T11:31:03.983Z,3.33
2022-08-08T11:33:51.128Z,2.70
2022-08-08T11:36:22.998Z,2.22
2022-08-08T11:38:58.794Z,1.55
2022-08-08T11:41:33.564Z,3.17
2022-08-08T11:44:05.547Z,2.22
2022-08-08T11:46:36.994Z,1.38
2022-08-08T11:49:14.591Z,5.03
2022-08-08T11:51:50.708Z,2.75
2022-08-08T11:54:38.269Z,2.88
2022-08-08T11:57:34.870Z,4.95
2022-08-08T12:00:09.799Z,5.07
2022-08-08T12:02:54.920Z,3.25
2022-08-08T12:05:38.698Z,1.00
2022-08-08T12:08:08.394Z,2.65
2022-08-08T12:10:52.884Z,4.20
2022-08-08T12:13:37.622Z,3.30
2022-08-08T12:16:19.577Z,1.73
2022-08-08T12:18:58.151Z,2.92
2022-08-08T12:21:59.218Z,2.35
2022-08-08T12:24:28.057Z,3.25
2022-08-08T12:26:59.198Z,0.80
2022-08-08T12:29:40.512Z,4.38
2022-08-08T12:32:20.764Z,3.60
2022-08-08T12:35:04.475Z,2.05
2022-08-08T12:37:40.872Z,3.25
2022-08-08T12:40:22.357Z,0.88
2022-08-08T12:42:55.679Z,2.10
2022-08-08T12:45:58.073Z,1.08
2022-08-08T12:48:37.627Z,2.45
2022-08-08T12:51:11.122Z,3.22
2022-08-08T12:53:59.564Z,1.77
2022-08-08T12:56:43.332Z,1.15
2022-08-08T12:59:44.478Z,1.58
2022-08-08T13:02:28.526Z,2.53
2022-08-08T13:05:05.909Z,0.88
2022-08-08T13:08:03.786Z,7.25
2022-08-08T13:10:55.471Z,3.70
2022-08-08T13:13:36.998Z,5.15
2022-08-08T13:16:30.025Z,2.10
2022-08-08T13:19:07.893Z,1.42
2022-08-08T13:21:58.353Z,3.92
2022-08-08T13:24:47.908Z,1.80
2022-08-08T13:27:23.144Z,2.88
2022-08-08T13:30:08.148Z,3.03
2022-08-08T13:32:41.641Z,1.02
2022-08-08T13:35:24.907Z,5.15
2022-08-08T13:38:08.598Z,1.88
2022-08-08T13:40:45.181Z,3.90
2022-08-08T13:43:20.913Z,4.60
2022-08-08T13:45:50.373Z,6.40
2022-08-08T13:48:25.715Z,2.67
2022-08-08T13:51:17.381Z,3.88
2022-08-08T13:54:00.790Z,1.67
2022-08-08T13:56:44.555Z,1.15
2022-08-08T14:02:07.831Z,1.95
2022-08-08T14:04:52.766Z,2.33
2022-08-08T14:07:25.076Z,0.70
2022-08-08T14:10:17.390Z,1.17
2022-08-08T14:12:48.499Z,2.55
2022-08-08T14:15:39.628Z,1.27
2022-08-08T14:18:36.019Z,2.53
2022-08-08T14:21:15.050Z,1.98
2022-08-08T14:24:06.652Z,3.15
2022-08-08T14:26:46.222Z,0.45
2022-08-08T14:29:29.968Z,3.05
2022-08-08T14:32:08.818Z,2.00
2022-08-08T14:34:43.566Z,1.00
2022-08-08T14:37:19.749Z,0.93
2022-08-08T14:40:05.204Z,2.38
2022-08-08T14:42:54.761Z,2.55
2022-08-08T14:45:33.360Z,2.10
2022-08-08T14:48:27.474Z,1.25
2022-08-08T14:51:08.651Z,1.33
2022-08-08T14:53:55.993Z,3.28
2022-08-08T14:56:27.426Z,1.45
2022-08-08T14:58:58.823Z,1.58
2022-08-08T15:01:37.101Z,1.33
2022-08-08T15:04:10.491Z,1.85
2022-08-08T15:06:42.631Z,2.92
2022-08-08T15:09:13.899Z,2.22
2022-08-08T15:11:53.042Z,0.75
2022-08-08T15:14:25.118Z,2.85
2022-08-08T15:16:56.943Z,1.58
2022-08-08T15:19:28.053Z,2.50
2022-08-08T15:21:58.428Z,1.63
2022-08-08T15:24:31.747Z,2.47
2022-08-08T15:27:11.947Z,2.42
2022-08-08T15:29:50.947Z,1.42
2022-08-08T15:32:27.337Z,4.47
2022-08-08T15:35:00.313Z,3.35
2022-08-08T15:37:30.270Z,2.28
2022-08-08T15:40:00.921Z,2.20
2022-08-08T15:42:31.816Z,4.18
2022-08-08T15:45:12.870Z,2.88
2022-08-08T15:48:05.354Z,3.08
2022-08-08T15:50:51.622Z,2.75
2022-08-08T15:53:23.841Z,3.13
2022-08-08T15:55:55.424Z,3.63
2022-08-08T15:58:28.245Z,3.75
2022-08-08T16:01:01.144Z,1.40
2022-08-08T16:03:30.542Z,2.30
2022-08-08T16:06:02.391Z,1.85
2022-08-08T16:08:32.712Z,1.85
2022-08-08T16:13:11.263Z,1.90
2022-08-08T16:13:53.319Z,1.52
2022-08-08T16:16:23.017Z,2.28
2022-08-08T16:18:56.453Z,2.40
2022-08-08T16:21:31.646Z,2.70
2022-08-08T16:24:04.760Z,3.60
2022-08-08T16:26:36.966Z,2.33
2022-08-08T16:29:09.449Z,1.92
2022-08-08T16:31:48.971Z,5.75
2022-08-08T16:34:22.288Z,1.65
2022-08-08T16:36:54.425Z,2.83
2022-08-08T16:39:49.058Z,1.98
2022-08-08T16:42:18.588Z,2.85
2022-08-08T16:44:54.266Z,3.45
2022-08-08T16:47:39.803Z,1.63
2022-08-08T16:50:14.056Z,3.58
2022-08-08T16:55:03.836Z,2.47
2022-08-08T16:55:55.693Z,1.52
2022-08-08T16:58:34.707Z,4.07
2022-08-08T17:01:09.158Z,1.02
2022-08-08T17:03:58.865Z,2.90
2022-08-08T17:06:37.374Z,1.33
2022-08-08T17:09:14.665Z,1.27
2022-08-08T17:11:49.181Z,2.63
2022-08-08T17:14:33.102Z,3.63
2022-08-08T17:17:41.729Z,2.67
2022-08-08T17:19:58.299Z,3.40
2022-08-08T17:22:39.359Z,1.60
2022-08-08T17:25:12.331Z,3.20
2022-08-08T17:27:47.343Z,6.03
2022-08-08T17:30:23.399Z,0.80
2022-08-08T17:34:37.727Z,2.50
2022-08-08T17:35:55.238Z,1.75
2022-08-08T17:38:35.711Z,2.00
2022-08-08T17:41:06.104Z,4.72
2022-08-08T17:44:01.401Z,1.60
2022-08-08T17:46:43.516Z,2.47
2022-08-08T17:49:16.525Z,4.30
2022-08-08T17:51:53.963Z,3.55
2022-08-08T17:54:28.880Z,2.78
2022-08-08T17:56:58.847Z,3.45
2022-08-08T17:59:30.393Z,2.05
2022-08-08T18:02:11.363Z,3.30
2022-08-08T18:04:49.404Z,1.27
2022-08-08T18:08:04.063Z,4.50
2022-08-08T18:10:11.161Z,4.15
2022-08-08T18:12:40.653Z,3.00
2022-08-08T18:15:12.893Z,2.13
2022-08-08T18:18:10.026Z,2.88
2022-08-08T18:20:44.141Z,2.30
2022-08-08T18:23:21.103Z,3.38
2022-08-08T18:25:52.607Z,3.33
2022-08-08T18:28:25.443Z,3.80
2022-08-08T18:30:55.245Z,3.42
2022-08-08T18:34:10.400Z,1.90
2022-08-08T18:36:18.933Z,2.72
2022-08-08T18:38:53.363Z,4.13
2022-08-08T18:41:51.637Z,2.67
2022-08-08T18:44:12.753Z,4.15
2022-08-08T18:46:55.821Z,3.67
2022-08-08T18:49:32.674Z,2.55
2022-08-08T18:52:22.647Z,4.75
2022-08-08T18:55:00.587Z,1.55
2022-08-08T18:57:45.617Z,3.50
2022-08-08T19:00:24.380Z,2.72
2022-08-08T19:03:03.971Z,1.77
2022-08-08T19:05:45.387Z,5.90
2022-08-08T19:08:24.033Z,2.05
2022-08-08T19:10:56.133Z,5.47
2022-08-08T19:13:25.535Z,2.35
2022-08-08T19:16:18.563Z,3.45
2022-08-08T19:19:00.208Z,3.17
2022-08-08T19:21:33.407Z,4.03
2022-08-08T19:24:39.348Z,1.23
2022-08-08T19:27:07.361Z,4.90
2022-08-08T19:29:42.400Z,2.90
2022-08-08T19:32:21.836Z,2.72
2022-08-08T19:34:52.948Z,2.22
2022-08-08T19:37:42.606Z,2.10
2022-08-08T19:40:16.596Z,1.50
2022-08-08T19:45:59.630Z,2.28
2022-08-08T19:48:07.908Z,8.07
2022-08-08T19:50:56.368Z,1.48
2022-08-08T19:53:51.590Z,1.55
2022-08-08T19:56:25.759Z,2.55
2022-08-08T19:59:07.584Z,1.40
2022-08-08T20:02:01.422Z,1.95
2022-08-08T20:04:27.172Z,4.05
2022-08-08T20:06:56.765Z,5.10
2022-08-08T20:09:30.153Z,2.17
2022-08-08T20:12:01.957Z,3.88
2022-08-08T20:14:35.887Z,2.10
2022-08-08T20:17:07.085Z,2.25
2022-08-08T20:19:43.352Z,2.03
2022-08-08T20:22:30.409Z,2.20
2022-08-08T20:25:00.515Z,1.20
2022-08-08T20:27:43.555Z,1.58
2022-08-08T20:30:38.935Z,1.70
2022-08-08T20:33:18.489Z,3.22
2022-08-08T20:35:59.135Z,1.60
2022-08-08T20:38:37.495Z,1.67
2022-08-08T20:41:17.646Z,1.30
2022-08-08T20:43:50.286Z,6.38
2022-08-08T20:46:25.595Z,1.42
2022-08-08T20:48:58.144Z,2.63
2022-08-08T20:51:32.458Z,7.57
2022-08-08T20:54:13.992Z,2.08
2022-08-08T20:57:11.756Z,2.85
2022-08-08T20:59:41.370Z,2.50
2022-08-08T21:02:12.494Z,3.70
2022-08-08T21:04:43.581Z,3.08
2022-08-08T21:07:17.287Z,3.08
2022-08-08T21:10:12.318Z,2.78
2022-08-08T21:12:44.489Z,1.63
2022-08-08T21:15:16.462Z,3.10
2022-08-08T21:18:05.587Z,2.60
2022-08-08T21:20:35.135Z,4.20
2022-08-08T21:23:09.170Z,2.13
2022-08-08T21:25:39.123Z,1.50
2022-08-08T21:28:15.619Z,3.63
2022-08-08T21:30:52.106Z,2.88
2022-08-08T21:33:21.911Z,4.20
2022-08-08T21:36:16.837Z,2.70
2022-08-08T21:38:40.621Z,4.30
2022-08-08T21:41:09.947Z,3.90
2022-08-08T21:43:58.360Z,2.22
2022-08-08T21:48:07.001Z,3.22
2022-08-08T21:49:18.540Z,1.48
2022-08-08T21:54:36.377Z,4.53
2022-08-08T21:55:02.941Z,1.80
2022-08-08T21:57:28.921Z,2.22
2022-08-08T22:00:14.168Z,3.35
2022-08-08T22:05:16.049Z,3.40
2022-08-08T22:07:49.004Z,4.93
2022-08-08T22:15:59.002Z,4.80
2022-08-08T22:18:31.226Z,2.25
2022-08-08T22:21:14.288Z,6.00
2022-08-08T22:23:50.867Z,5.28
2022-08-08T22:26:30.695Z,2.55
2022-08-08T22:29:57.190Z,6.05
2022-08-08T22:32:01.408Z,6.20
2022-08-08T22:34:39.364Z,2.35
2022-08-08T22:37:14.796Z,4.15
2022-08-08T22:40:00.569Z,2.58
2022-08-08T22:42:34.428Z,2.65
2022-08-08T22:45:12.101Z,3.22
2022-08-08T22:47:48.796Z,5.50
2022-08-08T22:50:27.505Z,2.92
2022-08-08T22:54:30.755Z,2.25
2022-08-08T22:55:59.826Z,2.17
2022-08-08T22:58:35.591Z,3.67
2022-08-08T23:02:03.002Z,4.65
2022-08-08T23:04:02.625Z,6.47
2022-08-08T23:06:32.014Z,4.50
2022-08-08T23:09:02.365Z,3.90
2022-08-08T23:12:17.460Z,2.88
2022-08-08T23:14:31.553Z,2.88
2022-08-08T23:17:02.465Z,7.47
2022-08-08T23:19:33.044Z,3.05
2022-08-08T23:22:08.275Z,4.43
2022-08-08T23:24:41.238Z,4.70
2022-08-08T23:27:37.547Z,5.10
2022-08-08T23:30:05.701Z,4.03
2022-08-08T23:32:44.054Z,5.95
2022-08-08T23:35:17.386Z,5.82
2022-08-08T23:38:02.545Z,6.68
2022-08-08T23:40:33.183Z,4.15
2022-08-08T23:43:04.488Z,5.60
2022-08-08T23:49:03.022Z,4.38
2022-08-08T23:49:04.614Z,4.28
2022-08-08T23:51:41.863Z,3.58
2022-08-08T23:54:41.795Z,3.80
2022-08-08T23:56:56.906Z,6.40
2022-08-08T23:59:26.272Z,3.90
